sensor_id;sensor_type;location;lat;lon;timestamp;P1;durP1;ratioP1;P2;durP2;ratioP2
18740;SDS011;9499;52.472;13.448;2023-04-06T00:00:01;2.43;;;2.33;;
18740;SDS011;9499;52.472;13.448;2023-04-06T00:02:28;2.60;;;2.50;;
18740;SDS011;9499;52.472;13.448;2023-04-06T00:04:55;2.90;;;2.70;;
18740;SDS011;9499;52.472;13.448;2023-04-06T00:07:21;3.07;;;2.87;;
18740;SDS011;9499;52.472;13.448;2023-04-06T00:09:48;2.80;;;2.60;;
18740;SDS011;9499;52.472;13.448;2023-04-06T00:12:16;3.00;;;2.80;;
18740;SDS011;9499;52.472;13.448;2023-04-06T00:14:42;3.30;;;3.00;;
18740;SDS011;9499;52.472;13.448;2023-04-06T00:17:09;4.40;;;4.10;;
18740;SDS011;9499;52.472;13.448;2023-04-06T00:19:36;2.90;;;2.70;;
18740;SDS011;9499;52.472;13.448;2023-04-06T00:22:02;4.10;;;3.80;;
18740;SDS011;9499;52.472;13.448;2023-04-06T00:24:29;2.90;;;2.70;;
18740;SDS011;9499;52.472;13.448;2023-04-06T00:26:55;3.20;;;3.00;;
18740;SDS011;9499;52.472;13.448;2023-04-06T00:29:23;3.40;;;3.10;;
18740;SDS011;9499;52.472;13.448;2023-04-06T00:31:50;3.67;;;3.30;;
18740;SDS011;9499;52.472;13.448;2023-04-06T00:34:16;3.20;;;3.00;;
18740;SDS011;9499;52.472;13.448;2023-04-06T00:36:43;3.43;;;3.23;;
18740;SDS011;9499;52.472;13.448;2023-04-06T00:39:09;2.67;;;2.50;;
18740;SDS011;9499;52.472;13.448;2023-04-06T00:41:36;2.83;;;2.73;;
18740;SDS011;9499;52.472;13.448;2023-04-06T00:44:02;12.50;;;3.70;;
18740;SDS011;9499;52.472;13.448;2023-04-06T00:46:30;2.80;;;2.60;;
18740;SDS011;9499;52.472;13.448;2023-04-06T00:48:57;2.73;;;2.53;;
18740;SDS011;9499;52.472;13.448;2023-04-06T00:51:23;3.27;;;2.97;;
18740;SDS011;9499;52.472;13.448;2023-04-06T00:53:50;4.07;;;2.73;;
18740;SDS011;9499;52.472;13.448;2023-04-06T00:56:16;3.27;;;3.07;;
18740;SDS011;9499;52.472;13.448;2023-04-06T00:58:43;4.47;;;4.17;;
18740;SDS011;9499;52.472;13.448;2023-04-06T01:01:09;3.17;;;2.97;;
18740;SDS011;9499;52.472;13.448;2023-04-06T01:03:37;4.57;;;4.27;;
18740;SDS011;9499;52.472;13.448;2023-04-06T01:06:04;3.40;;;3.20;;
18740;SDS011;9499;52.472;13.448;2023-04-06T01:08:30;2.57;;;2.47;;
18740;SDS011;9499;52.472;13.448;2023-04-06T01:10:58;6.17;;;3.00;;
18740;SDS011;9499;52.472;13.448;2023-04-06T01:13:25;2.93;;;2.73;;
18740;SDS011;9499;52.472;13.448;2023-04-06T01:15:52;4.40;;;4.00;;
18740;SDS011;9499;52.472;13.448;2023-04-06T01:18:25;3.30;;;3.10;;
18740;SDS011;9499;52.472;13.448;2023-04-06T01:20:53;2.73;;;2.60;;
18740;SDS011;9499;52.472;13.448;2023-04-06T01:23:21;2.50;;;2.30;;
18740;SDS011;9499;52.472;13.448;2023-04-06T01:25:48;3.50;;;3.30;;
18740;SDS011;9499;52.472;13.448;2023-04-06T01:28:15;3.30;;;3.10;;
18740;SDS011;9499;52.472;13.448;2023-04-06T01:30:41;2.70;;;2.50;;
18740;SDS011;9499;52.472;13.448;2023-04-06T01:33:08;3.73;;;3.53;;
18740;SDS011;9499;52.472;13.448;2023-04-06T01:35:34;2.47;;;2.30;;
18740;SDS011;9499;52.472;13.448;2023-04-06T01:38:01;4.63;;;2.67;;
18740;SDS011;9499;52.472;13.448;2023-04-06T01:40:29;4.27;;;2.83;;
18740;SDS011;9499;52.472;13.448;2023-04-06T01:42:55;9.30;;;4.17;;
18740;SDS011;9499;52.472;13.448;2023-04-06T01:45:22;14.63;;;3.87;;
18740;SDS011;9499;52.472;13.448;2023-04-06T01:47:48;3.90;;;3.60;;
18740;SDS011;9499;52.472;13.448;2023-04-06T01:50:15;6.23;;;5.80;;
18740;SDS011;9499;52.472;13.448;2023-04-06T01:52:41;3.60;;;2.70;;
18740;SDS011;9499;52.472;13.448;2023-04-06T01:55:08;3.90;;;3.60;;
18740;SDS011;9499;52.472;13.448;2023-04-06T01:57:36;2.50;;;2.40;;
18740;SDS011;9499;52.472;13.448;2023-04-06T02:00:02;3.07;;;2.77;;
18740;SDS011;9499;52.472;13.448;2023-04-06T02:02:30;3.23;;;2.93;;
18740;SDS011;9499;52.472;13.448;2023-04-06T02:04:56;3.13;;;2.93;;
18740;SDS011;9499;52.472;13.448;2023-04-06T02:07:23;3.33;;;3.03;;
18740;SDS011;9499;52.472;13.448;2023-04-06T02:09:50;3.20;;;3.00;;
18740;SDS011;9499;52.472;13.448;2023-04-06T02:12:20;3.43;;;3.10;;
18740;SDS011;9499;52.472;13.448;2023-04-06T02:14:47;4.77;;;4.33;;
18740;SDS011;9499;52.472;13.448;2023-04-06T02:17:14;3.17;;;2.97;;
18740;SDS011;9499;52.472;13.448;2023-04-06T02:19:41;3.57;;;3.37;;
18740;SDS011;9499;52.472;13.448;2023-04-06T02:22:07;3.00;;;2.80;;
18740;SDS011;9499;52.472;13.448;2023-04-06T02:24:34;2.80;;;2.60;;
18740;SDS011;9499;52.472;13.448;2023-04-06T02:27:00;2.50;;;2.40;;
18740;SDS011;9499;52.472;13.448;2023-04-06T02:29:27;4.27;;;3.57;;
18740;SDS011;9499;52.472;13.448;2023-04-06T02:31:54;3.00;;;2.80;;
18740;SDS011;9499;52.472;13.448;2023-04-06T02:34:21;3.20;;;3.00;;
18740;SDS011;9499;52.472;13.448;2023-04-06T02:36:47;2.87;;;2.67;;
18740;SDS011;9499;52.472;13.448;2023-04-06T02:39:14;3.33;;;3.13;;
18740;SDS011;9499;52.472;13.448;2023-04-06T02:41:40;3.97;;;3.77;;
18740;SDS011;9499;52.472;13.448;2023-04-06T02:44:07;3.33;;;3.13;;
18740;SDS011;9499;52.472;13.448;2023-04-06T02:46:34;4.63;;;4.33;;
18740;SDS011;9499;52.472;13.448;2023-04-06T02:49:02;4.80;;;4.23;;
18740;SDS011;9499;52.472;13.448;2023-04-06T02:51:29;3.90;;;3.70;;
18740;SDS011;9499;52.472;13.448;2023-04-06T02:53:55;4.00;;;3.70;;
18740;SDS011;9499;52.472;13.448;2023-04-06T02:56:22;4.80;;;3.13;;
18740;SDS011;9499;52.472;13.448;2023-04-06T02:58:48;7.07;;;4.00;;
18740;SDS011;9499;52.472;13.448;2023-04-06T03:01:15;4.17;;;3.87;;
18740;SDS011;9499;52.472;13.448;2023-04-06T03:03:41;3.77;;;3.53;;
18740;SDS011;9499;52.472;13.448;2023-04-06T03:06:09;4.60;;;4.27;;
18740;SDS011;9499;52.472;13.448;2023-04-06T03:08:36;4.83;;;4.47;;
18740;SDS011;9499;52.472;13.448;2023-04-06T03:11:02;6.47;;;5.23;;
18740;SDS011;9499;52.472;13.448;2023-04-06T03:13:29;3.90;;;3.70;;
18740;SDS011;9499;52.472;13.448;2023-04-06T03:15:55;4.33;;;3.93;;
18740;SDS011;9499;52.472;13.448;2023-04-06T03:18:22;3.43;;;3.20;;
18740;SDS011;9499;52.472;13.448;2023-04-06T03:20:50;3.60;;;3.40;;
18740;SDS011;9499;52.472;13.448;2023-04-06T03:23:20;3.57;;;3.30;;
18740;SDS011;9499;52.472;13.448;2023-04-06T03:25:46;4.27;;;3.93;;
18740;SDS011;9499;52.472;13.448;2023-04-06T03:28:13;4.17;;;3.87;;
18740;SDS011;9499;52.472;13.448;2023-04-06T03:30:39;4.90;;;4.60;;
18740;SDS011;9499;52.472;13.448;2023-04-06T03:33:06;3.90;;;3.70;;
18740;SDS011;9499;52.472;13.448;2023-04-06T03:35:32;5.17;;;4.10;;
18740;SDS011;9499;52.472;13.448;2023-04-06T03:37:59;3.97;;;3.70;;
18740;SDS011;9499;52.472;13.448;2023-04-06T03:40:27;6.03;;;5.67;;
18740;SDS011;9499;52.472;13.448;2023-04-06T03:42:53;7.27;;;4.33;;
18740;SDS011;9499;52.472;13.448;2023-04-06T03:45:20;7.57;;;4.20;;
18740;SDS011;9499;52.472;13.448;2023-04-06T03:47:46;7.00;;;5.10;;
18740;SDS011;9499;52.472;13.448;2023-04-06T03:50:13;3.10;;;2.90;;
18740;SDS011;9499;52.472;13.448;2023-04-06T03:52:39;4.70;;;4.40;;
18740;SDS011;9499;52.472;13.448;2023-04-06T03:55:07;4.27;;;3.97;;
18740;SDS011;9499;52.472;13.448;2023-04-06T03:57:35;3.70;;;3.40;;
18740;SDS011;9499;52.472;13.448;2023-04-06T04:00:02;3.90;;;3.70;;
18740;SDS011;9499;52.472;13.448;2023-04-06T04:02:29;4.33;;;4.03;;
18740;SDS011;9499;52.472;13.448;2023-04-06T04:04:56;8.00;;;4.40;;
18740;SDS011;9499;52.472;13.448;2023-04-06T04:07:22;4.43;;;4.00;;
18740;SDS011;9499;52.472;13.448;2023-04-06T04:09:49;3.50;;;3.30;;
18740;SDS011;9499;52.472;13.448;2023-04-06T04:12:15;4.37;;;4.07;;
18740;SDS011;9499;52.472;13.448;2023-04-06T04:14:43;4.13;;;3.83;;
18740;SDS011;9499;52.472;13.448;2023-04-06T04:17:10;3.30;;;3.10;;
18740;SDS011;9499;52.472;13.448;2023-04-06T04:19:36;4.87;;;4.40;;
18740;SDS011;9499;52.472;13.448;2023-04-06T04:22:03;4.37;;;3.97;;
18740;SDS011;9499;52.472;13.448;2023-04-06T04:24:31;3.03;;;2.83;;
18740;SDS011;9499;52.472;13.448;2023-04-06T04:26:58;3.70;;;3.47;;
18740;SDS011;9499;52.472;13.448;2023-04-06T04:29:25;5.00;;;3.50;;
18740;SDS011;9499;52.472;13.448;2023-04-06T04:31:53;4.00;;;3.60;;
18740;SDS011;9499;52.472;13.448;2023-04-06T04:34:20;3.90;;;3.50;;
18740;SDS011;9499;52.472;13.448;2023-04-06T04:36:48;4.17;;;3.67;;
18740;SDS011;9499;52.472;13.448;2023-04-06T04:39:15;6.17;;;5.67;;
18740;SDS011;9499;52.472;13.448;2023-04-06T04:41:42;3.50;;;3.30;;
18740;SDS011;9499;52.472;13.448;2023-04-06T04:44:08;4.53;;;3.53;;
18740;SDS011;9499;52.472;13.448;2023-04-06T04:46:35;12.53;;;4.63;;
18740;SDS011;9499;52.472;13.448;2023-04-06T04:49:02;3.50;;;3.20;;
18740;SDS011;9499;52.472;13.448;2023-04-06T04:51:29;4.27;;;3.87;;
18740;SDS011;9499;52.472;13.448;2023-04-06T04:53:56;4.30;;;3.67;;
18740;SDS011;9499;52.472;13.448;2023-04-06T04:56:23;3.40;;;3.10;;
18740;SDS011;9499;52.472;13.448;2023-04-06T04:58:50;5.03;;;4.63;;
18740;SDS011;9499;52.472;13.448;2023-04-06T05:01:16;3.80;;;3.60;;
18740;SDS011;9499;52.472;13.448;2023-04-06T05:03:43;4.10;;;3.80;;
18740;SDS011;9499;52.472;13.448;2023-04-06T05:06:11;3.70;;;3.20;;
18740;SDS011;9499;52.472;13.448;2023-04-06T05:08:37;3.00;;;2.80;;
18740;SDS011;9499;52.472;13.448;2023-04-06T05:11:04;4.73;;;4.40;;
18740;SDS011;9499;52.472;13.448;2023-04-06T05:13:31;4.37;;;4.00;;
18740;SDS011;9499;52.472;13.448;2023-04-06T05:15:57;3.43;;;3.23;;
18740;SDS011;9499;52.472;13.448;2023-04-06T05:18:24;2.67;;;2.57;;
18740;SDS011;9499;52.472;13.448;2023-04-06T05:20:51;3.47;;;3.27;;
18740;SDS011;9499;52.472;13.448;2023-04-06T05:23:19;3.00;;;2.80;;
18740;SDS011;9499;52.472;13.448;2023-04-06T05:25:46;3.33;;;3.13;;
18740;SDS011;9499;52.472;13.448;2023-04-06T05:28:12;3.10;;;2.90;;
18740;SDS011;9499;52.472;13.448;2023-04-06T05:30:40;2.70;;;2.57;;
18740;SDS011;9499;52.472;13.448;2023-04-06T05:33:07;3.30;;;3.10;;
18740;SDS011;9499;52.472;13.448;2023-04-06T05:35:34;4.70;;;4.40;;
18740;SDS011;9499;52.472;13.448;2023-04-06T05:38:01;5.37;;;4.97;;
18740;SDS011;9499;52.472;13.448;2023-04-06T05:40:29;4.60;;;4.20;;
18740;SDS011;9499;52.472;13.448;2023-04-06T05:42:56;3.57;;;3.37;;
18740;SDS011;9499;52.472;13.448;2023-04-06T05:45:22;3.10;;;2.90;;
18740;SDS011;9499;52.472;13.448;2023-04-06T05:47:49;3.77;;;3.43;;
18740;SDS011;9499;52.472;13.448;2023-04-06T05:50:15;3.47;;;3.17;;
18740;SDS011;9499;52.472;13.448;2023-04-06T05:52:42;2.97;;;2.80;;
18740;SDS011;9499;52.472;13.448;2023-04-06T05:55:11;3.27;;;3.07;;
18740;SDS011;9499;52.472;13.448;2023-04-06T05:57:39;3.20;;;3.00;;
18740;SDS011;9499;52.472;13.448;2023-04-06T06:00:06;3.30;;;3.10;;
18740;SDS011;9499;52.472;13.448;2023-04-06T06:02:34;2.43;;;2.33;;
18740;SDS011;9499;52.472;13.448;2023-04-06T06:05:01;3.37;;;3.07;;
18740;SDS011;9499;52.472;13.448;2023-04-06T06:07:28;4.37;;;3.97;;
18740;SDS011;9499;52.472;13.448;2023-04-06T06:09:56;3.53;;;3.33;;
18740;SDS011;9499;52.472;13.448;2023-04-06T06:12:22;3.13;;;2.93;;
18740;SDS011;9499;52.472;13.448;2023-04-06T06:14:50;3.43;;;3.23;;
18740;SDS011;9499;52.472;13.448;2023-04-06T06:17:17;4.57;;;4.27;;
18740;SDS011;9499;52.472;13.448;2023-04-06T06:19:43;2.80;;;2.60;;
18740;SDS011;9499;52.472;13.448;2023-04-06T06:22:10;8.10;;;4.00;;
18740;SDS011;9499;52.472;13.448;2023-04-06T06:24:36;3.23;;;3.00;;
18740;SDS011;9499;52.472;13.448;2023-04-06T06:27:03;5.13;;;3.63;;
18740;SDS011;9499;52.472;13.448;2023-04-06T06:29:29;2.70;;;2.60;;
18740;SDS011;9499;52.472;13.448;2023-04-06T06:31:57;3.00;;;2.73;;
18740;SDS011;9499;52.472;13.448;2023-04-06T06:34:24;3.60;;;3.30;;
18740;SDS011;9499;52.472;13.448;2023-04-06T06:36:50;2.93;;;2.73;;
18740;SDS011;9499;52.472;13.448;2023-04-06T06:39:19;2.70;;;2.50;;
18740;SDS011;9499;52.472;13.448;2023-04-06T06:41:46;4.33;;;4.03;;
18740;SDS011;9499;52.472;13.448;2023-04-06T06:44:13;3.13;;;2.93;;
18740;SDS011;9499;52.472;13.448;2023-04-06T06:46:40;3.37;;;3.17;;
18740;SDS011;9499;52.472;13.448;2023-04-06T06:49:08;3.80;;;3.60;;
18740;SDS011;9499;52.472;13.448;2023-04-06T06:51:36;3.13;;;2.90;;
18740;SDS011;9499;52.472;13.448;2023-04-06T06:54:02;4.67;;;3.30;;
18740;SDS011;9499;52.472;13.448;2023-04-06T06:56:29;3.00;;;2.83;;
18740;SDS011;9499;52.472;13.448;2023-04-06T06:58:55;4.43;;;3.07;;
18740;SDS011;9499;52.472;13.448;2023-04-06T07:01:22;2.57;;;2.47;;
18740;SDS011;9499;52.472;13.448;2023-04-06T07:03:48;2.53;;;2.43;;
18740;SDS011;9499;52.472;13.448;2023-04-06T07:06:16;3.30;;;3.10;;
18740;SDS011;9499;52.472;13.448;2023-04-06T07:08:43;2.40;;;2.30;;
18740;SDS011;9499;52.472;13.448;2023-04-06T07:11:09;4.87;;;4.47;;
18740;SDS011;9499;52.472;13.448;2023-04-06T07:13:36;3.17;;;2.97;;
18740;SDS011;9499;52.472;13.448;2023-04-06T07:16:02;3.40;;;3.20;;
18740;SDS011;9499;52.472;13.448;2023-04-06T07:18:29;2.63;;;2.43;;
18740;SDS011;9499;52.472;13.448;2023-04-06T07:20:56;3.90;;;3.50;;
18740;SDS011;9499;52.472;13.448;2023-04-06T07:23:24;3.00;;;2.40;;
18740;SDS011;9499;52.472;13.448;2023-04-06T07:25:50;2.97;;;2.77;;
18740;SDS011;9499;52.472;13.448;2023-04-06T07:28:18;3.30;;;3.00;;
18740;SDS011;9499;52.472;13.448;2023-04-06T07:30:45;5.80;;;3.60;;
18740;SDS011;9499;52.472;13.448;2023-04-06T07:33:13;3.30;;;2.60;;
18740;SDS011;9499;52.472;13.448;2023-04-06T07:35:40;4.40;;;4.00;;
18740;SDS011;9499;52.472;13.448;2023-04-06T07:38:06;2.20;;;2.10;;
18740;SDS011;9499;52.472;13.448;2023-04-06T07:40:34;2.50;;;2.30;;
18740;SDS011;9499;52.472;13.448;2023-04-06T07:43:01;2.80;;;2.60;;
18740;SDS011;9499;52.472;13.448;2023-04-06T07:45:27;2.70;;;2.60;;
18740;SDS011;9499;52.472;13.448;2023-04-06T07:47:54;2.73;;;2.53;;
18740;SDS011;9499;52.472;13.448;2023-04-06T07:50:21;3.50;;;3.20;;
18740;SDS011;9499;52.472;13.448;2023-04-06T07:52:47;2.00;;;1.90;;
18740;SDS011;9499;52.472;13.448;2023-04-06T07:55:14;2.83;;;2.63;;
18740;SDS011;9499;52.472;13.448;2023-04-06T07:57:42;2.70;;;2.50;;
18740;SDS011;9499;52.472;13.448;2023-04-06T08:00:09;2.90;;;2.70;;
18740;SDS011;9499;52.472;13.448;2023-04-06T08:02:36;2.03;;;1.93;;
18740;SDS011;9499;52.472;13.448;2023-04-06T08:05:03;2.10;;;2.00;;
18740;SDS011;9499;52.472;13.448;2023-04-06T08:07:30;2.50;;;2.30;;
18740;SDS011;9499;52.472;13.448;2023-04-06T08:09:57;2.50;;;2.30;;
18740;SDS011;9499;52.472;13.448;2023-04-06T08:12:24;2.40;;;2.30;;
18740;SDS011;9499;52.472;13.448;2023-04-06T08:14:51;3.63;;;3.43;;
18740;SDS011;9499;52.472;13.448;2023-04-06T08:17:18;2.20;;;2.00;;
18740;SDS011;9499;52.472;13.448;2023-04-06T08:19:45;3.00;;;2.53;;
18740;SDS011;9499;52.472;13.448;2023-04-06T08:22:12;2.50;;;2.30;;
18740;SDS011;9499;52.472;13.448;2023-04-06T08:24:38;2.33;;;2.17;;
18740;SDS011;9499;52.472;13.448;2023-04-06T08:27:05;2.50;;;2.30;;
18740;SDS011;9499;52.472;13.448;2023-04-06T08:29:32;3.97;;;3.60;;
18740;SDS011;9499;52.472;13.448;2023-04-06T08:32:00;4.53;;;3.73;;
18740;SDS011;9499;52.472;13.448;2023-04-06T08:34:29;2.57;;;2.37;;
18740;SDS011;9499;52.472;13.448;2023-04-06T08:36:57;3.67;;;3.37;;
18740;SDS011;9499;52.472;13.448;2023-04-06T08:39:23;2.23;;;2.13;;
18740;SDS011;9499;52.472;13.448;2023-04-06T08:41:50;3.40;;;2.57;;
18740;SDS011;9499;52.472;13.448;2023-04-06T08:44:17;2.13;;;2.00;;
18740;SDS011;9499;52.472;13.448;2023-04-06T08:46:44;2.63;;;2.43;;
18740;SDS011;9499;52.472;13.448;2023-04-06T08:49:12;2.13;;;2.03;;
18740;SDS011;9499;52.472;13.448;2023-04-06T08:51:41;2.53;;;2.33;;
18740;SDS011;9499;52.472;13.448;2023-04-06T08:54:09;3.77;;;2.53;;
18740;SDS011;9499;52.472;13.448;2023-04-06T08:56:37;2.30;;;2.17;;
18740;SDS011;9499;52.472;13.448;2023-04-06T08:59:04;2.60;;;2.40;;
18740;SDS011;9499;52.472;13.448;2023-04-06T09:01:33;2.53;;;2.07;;
18740;SDS011;9499;52.472;13.448;2023-04-06T09:04:05;2.30;;;2.17;;
18740;SDS011;9499;52.472;13.448;2023-04-06T09:06:37;3.20;;;3.00;;
18740;SDS011;9499;52.472;13.448;2023-04-06T09:09:05;1.97;;;1.87;;
18740;SDS011;9499;52.472;13.448;2023-04-06T09:11:41;2.17;;;2.07;;
18740;SDS011;9499;52.472;13.448;2023-04-06T09:14:08;2.87;;;2.67;;
18740;SDS011;9499;52.472;13.448;2023-04-06T09:16:38;2.00;;;1.90;;
18740;SDS011;9499;52.472;13.448;2023-04-06T09:19:05;2.23;;;2.00;;
18740;SDS011;9499;52.472;13.448;2023-04-06T09:21:32;2.00;;;1.90;;
18740;SDS011;9499;52.472;13.448;2023-04-06T09:24:00;2.97;;;2.30;;
18740;SDS011;9499;52.472;13.448;2023-04-06T09:26:27;2.37;;;1.60;;
18740;SDS011;9499;52.472;13.448;2023-04-06T09:28:54;2.77;;;2.10;;
18740;SDS011;9499;52.472;13.448;2023-04-06T09:31:22;1.80;;;1.70;;
18740;SDS011;9499;52.472;13.448;2023-04-06T09:33:49;1.87;;;1.77;;
18740;SDS011;9499;52.472;13.448;2023-04-06T09:36:17;1.70;;;1.60;;
18740;SDS011;9499;52.472;13.448;2023-04-06T09:38:53;1.83;;;1.73;;
18740;SDS011;9499;52.472;13.448;2023-04-06T09:41:23;4.53;;;2.33;;
18740;SDS011;9499;52.472;13.448;2023-04-06T09:43:51;2.63;;;2.00;;
18740;SDS011;9499;52.472;13.448;2023-04-06T09:46:18;2.97;;;1.87;;
18740;SDS011;9499;52.472;13.448;2023-04-06T09:48:48;2.00;;;1.90;;
18740;SDS011;9499;52.472;13.448;2023-04-06T09:51:16;1.90;;;1.80;;
18740;SDS011;9499;52.472;13.448;2023-04-06T09:53:44;1.63;;;1.53;;
18740;SDS011;9499;52.472;13.448;2023-04-06T09:56:19;1.87;;;1.77;;
18740;SDS011;9499;52.472;13.448;2023-04-06T09:58:51;1.63;;;1.53;;
18740;SDS011;9499;52.472;13.448;2023-04-06T10:01:22;2.47;;;2.27;;
18740;SDS011;9499;52.472;13.448;2023-04-06T10:03:55;1.60;;;1.50;;
18740;SDS011;9499;52.472;13.448;2023-04-06T10:06:28;3.23;;;1.40;;
18740;SDS011;9499;52.472;13.448;2023-04-06T10:09:00;1.50;;;1.40;;
18740;SDS011;9499;52.472;13.448;2023-04-06T10:11:28;5.73;;;1.80;;
18740;SDS011;9499;52.472;13.448;2023-04-06T10:13:56;2.17;;;1.97;;
18740;SDS011;9499;52.472;13.448;2023-04-06T10:16:23;1.50;;;1.40;;
18740;SDS011;9499;52.472;13.448;2023-04-06T10:18:52;2.40;;;2.20;;
18740;SDS011;9499;52.472;13.448;2023-04-06T10:21:24;1.60;;;1.50;;
18740;SDS011;9499;52.472;13.448;2023-04-06T10:23:54;1.50;;;1.30;;
18740;SDS011;9499;52.472;13.448;2023-04-06T10:26:24;1.50;;;1.37;;
18740;SDS011;9499;52.472;13.448;2023-04-06T10:28:51;1.53;;;1.43;;
18740;SDS011;9499;52.472;13.448;2023-04-06T10:31:25;1.90;;;1.70;;
18740;SDS011;9499;52.472;13.448;2023-04-06T10:33:55;1.90;;;1.80;;
18740;SDS011;9499;52.472;13.448;2023-04-06T10:36:23;1.90;;;1.80;;
18740;SDS011;9499;52.472;13.448;2023-04-06T10:38:53;1.83;;;1.73;;
18740;SDS011;9499;52.472;13.448;2023-04-06T10:41:21;2.00;;;1.50;;
18740;SDS011;9499;52.472;13.448;2023-04-06T10:43:54;1.50;;;1.40;;
18740;SDS011;9499;52.472;13.448;2023-04-06T10:46:25;3.63;;;2.40;;
18740;SDS011;9499;52.472;13.448;2023-04-06T10:48:53;1.70;;;1.60;;
18740;SDS011;9499;52.472;13.448;2023-04-06T10:51:25;1.60;;;1.40;;
18740;SDS011;9499;52.472;13.448;2023-04-06T10:53:53;1.40;;;1.30;;
18740;SDS011;9499;52.472;13.448;2023-04-06T10:56:21;1.40;;;1.27;;
18740;SDS011;9499;52.472;13.448;2023-04-06T10:58:51;1.60;;;1.50;;
18740;SDS011;9499;52.472;13.448;2023-04-06T11:01:19;1.50;;;1.40;;
18740;SDS011;9499;52.472;13.448;2023-04-06T11:03:49;2.27;;;1.50;;
18740;SDS011;9499;52.472;13.448;2023-04-06T11:06:20;2.23;;;1.60;;
18740;SDS011;9499;52.472;13.448;2023-04-06T11:08:47;1.87;;;1.67;;
18740;SDS011;9499;52.472;13.448;2023-04-06T11:11:15;1.70;;;1.40;;
18740;SDS011;9499;52.472;13.448;2023-04-06T11:13:44;2.70;;;2.20;;
18740;SDS011;9499;52.472;13.448;2023-04-06T11:16:12;2.17;;;1.43;;
18740;SDS011;9499;52.472;13.448;2023-04-06T11:18:46;1.63;;;1.50;;
18740;SDS011;9499;52.472;13.448;2023-04-06T11:21:18;1.87;;;1.67;;
18740;SDS011;9499;52.472;13.448;2023-04-06T11:23:45;2.80;;;1.20;;
18740;SDS011;9499;52.472;13.448;2023-04-06T11:26:12;1.43;;;1.20;;
18740;SDS011;9499;52.472;13.448;2023-04-06T11:28:40;2.00;;;1.80;;
18740;SDS011;9499;52.472;13.448;2023-04-06T11:31:07;1.40;;;1.20;;
18740;SDS011;9499;52.472;13.448;2023-04-06T11:33:35;1.50;;;1.40;;
18740;SDS011;9499;52.472;13.448;2023-04-06T11:36:04;1.57;;;1.47;;
18740;SDS011;9499;52.472;13.448;2023-04-06T11:38:32;2.13;;;1.60;;
18740;SDS011;9499;52.472;13.448;2023-04-06T11:40:59;1.30;;;1.13;;
18740;SDS011;9499;52.472;13.448;2023-04-06T11:43:27;2.00;;;1.80;;
18740;SDS011;9499;52.472;13.448;2023-04-06T11:45:59;1.50;;;1.40;;
18740;SDS011;9499;52.472;13.448;2023-04-06T11:48:27;2.13;;;1.57;;
18740;SDS011;9499;52.472;13.448;2023-04-06T11:50:55;1.40;;;1.10;;
18740;SDS011;9499;52.472;13.448;2023-04-06T11:53:23;2.30;;;1.57;;
18740;SDS011;9499;52.472;13.448;2023-04-06T11:55:50;2.67;;;2.40;;
18740;SDS011;9499;52.472;13.448;2023-04-06T11:58:17;1.90;;;1.50;;
18740;SDS011;9499;52.472;13.448;2023-04-06T12:00:43;1.47;;;1.20;;
18740;SDS011;9499;52.472;13.448;2023-04-06T12:03:10;2.20;;;1.83;;
18740;SDS011;9499;52.472;13.448;2023-04-06T12:05:37;2.17;;;1.67;;
18740;SDS011;9499;52.472;13.448;2023-04-06T12:08:03;2.03;;;1.70;;
18740;SDS011;9499;52.472;13.448;2023-04-06T12:10:31;1.90;;;1.60;;
18740;SDS011;9499;52.472;13.448;2023-04-06T12:12:59;2.10;;;1.30;;
18740;SDS011;9499;52.472;13.448;2023-04-06T12:15:25;1.40;;;1.30;;
18740;SDS011;9499;52.472;13.448;2023-04-06T12:17:52;1.47;;;1.30;;
18740;SDS011;9499;52.472;13.448;2023-04-06T12:20:18;5.63;;;1.70;;
18740;SDS011;9499;52.472;13.448;2023-04-06T12:22:45;2.90;;;1.50;;
18740;SDS011;9499;52.472;13.448;2023-04-06T12:25:11;3.33;;;1.20;;
18740;SDS011;9499;52.472;13.448;2023-04-06T12:27:39;2.70;;;2.50;;
18740;SDS011;9499;52.472;13.448;2023-04-06T12:30:06;1.50;;;1.37;;
18740;SDS011;9499;52.472;13.448;2023-04-06T12:32:34;2.00;;;1.53;;
18740;SDS011;9499;52.472;13.448;2023-04-06T12:35:00;1.30;;;1.20;;
18740;SDS011;9499;52.472;13.448;2023-04-06T12:37:27;1.70;;;1.43;;
18740;SDS011;9499;52.472;13.448;2023-04-06T12:39:53;1.50;;;1.37;;
18740;SDS011;9499;52.472;13.448;2023-04-06T12:42:20;2.17;;;1.60;;
18740;SDS011;9499;52.472;13.448;2023-04-06T12:44:48;2.70;;;1.90;;
18740;SDS011;9499;52.472;13.448;2023-04-06T12:47:14;1.50;;;1.33;;
18740;SDS011;9499;52.472;13.448;2023-04-06T12:49:41;1.60;;;1.20;;
18740;SDS011;9499;52.472;13.448;2023-04-06T12:52:09;1.70;;;1.60;;
18740;SDS011;9499;52.472;13.448;2023-04-06T12:54:36;2.20;;;1.73;;
18740;SDS011;9499;52.472;13.448;2023-04-06T12:57:03;1.93;;;1.83;;
18740;SDS011;9499;52.472;13.448;2023-04-06T12:59:30;2.10;;;1.80;;
18740;SDS011;9499;52.472;13.448;2023-04-06T13:02:01;1.90;;;1.53;;
18740;SDS011;9499;52.472;13.448;2023-04-06T13:04:28;1.50;;;1.30;;
18740;SDS011;9499;52.472;13.448;2023-04-06T13:06:55;3.37;;;1.63;;
18740;SDS011;9499;52.472;13.448;2023-04-06T13:09:21;1.83;;;1.47;;
18740;SDS011;9499;52.472;13.448;2023-04-06T13:11:48;1.60;;;1.33;;
18740;SDS011;9499;52.472;13.448;2023-04-06T13:14:14;1.40;;;1.10;;
18740;SDS011;9499;52.472;13.448;2023-04-06T13:16:41;1.97;;;1.63;;
18740;SDS011;9499;52.472;13.448;2023-04-06T13:19:09;2.80;;;2.50;;
18740;SDS011;9499;52.472;13.448;2023-04-06T13:21:36;2.63;;;1.80;;
18740;SDS011;9499;52.472;13.448;2023-04-06T13:24:02;2.47;;;1.57;;
18740;SDS011;9499;52.472;13.448;2023-04-06T13:26:29;1.93;;;1.53;;
18740;SDS011;9499;52.472;13.448;2023-04-06T13:28:56;2.03;;;1.60;;
18740;SDS011;9499;52.472;13.448;2023-04-06T13:31:23;4.63;;;2.07;;
18740;SDS011;9499;52.472;13.448;2023-04-06T13:33:49;2.47;;;1.67;;
18740;SDS011;9499;52.472;13.448;2023-04-06T13:36:17;1.53;;;1.33;;
18740;SDS011;9499;52.472;13.448;2023-04-06T13:38:44;2.27;;;1.40;;
18740;SDS011;9499;52.472;13.448;2023-04-06T13:41:16;1.80;;;1.40;;
18740;SDS011;9499;52.472;13.448;2023-04-06T13:43:45;2.13;;;1.77;;
18740;SDS011;9499;52.472;13.448;2023-04-06T13:46:12;1.77;;;1.50;;
18740;SDS011;9499;52.472;13.448;2023-04-06T13:48:38;1.70;;;1.33;;
18740;SDS011;9499;52.472;13.448;2023-04-06T13:51:08;1.70;;;1.43;;
18740;SDS011;9499;52.472;13.448;2023-04-06T13:53:36;1.80;;;1.27;;
18740;SDS011;9499;52.472;13.448;2023-04-06T13:56:03;2.40;;;1.53;;
18740;SDS011;9499;52.472;13.448;2023-04-06T13:58:30;1.70;;;1.23;;
18740;SDS011;9499;52.472;13.448;2023-04-06T14:01:01;2.70;;;1.20;;
18740;SDS011;9499;52.472;13.448;2023-04-06T14:03:28;7.13;;;1.70;;
18740;SDS011;9499;52.472;13.448;2023-04-06T14:05:55;2.07;;;1.10;;
18740;SDS011;9499;52.472;13.448;2023-04-06T14:08:22;1.87;;;1.30;;
18740;SDS011;9499;52.472;13.448;2023-04-06T14:10:49;2.30;;;1.10;;
18740;SDS011;9499;52.472;13.448;2023-04-06T14:13:16;2.03;;;1.53;;
18740;SDS011;9499;52.472;13.448;2023-04-06T14:15:44;2.20;;;1.10;;
18740;SDS011;9499;52.472;13.448;2023-04-06T14:18:10;1.50;;;1.10;;
18740;SDS011;9499;52.472;13.448;2023-04-06T14:20:37;2.20;;;1.50;;
18740;SDS011;9499;52.472;13.448;2023-04-06T14:23:03;1.83;;;1.37;;
18740;SDS011;9499;52.472;13.448;2023-04-06T14:25:30;1.63;;;1.37;;
18740;SDS011;9499;52.472;13.448;2023-04-06T14:27:58;2.47;;;2.23;;
18740;SDS011;9499;52.472;13.448;2023-04-06T14:30:25;1.57;;;1.20;;
18740;SDS011;9499;52.472;13.448;2023-04-06T14:32:52;4.17;;;1.60;;
18740;SDS011;9499;52.472;13.448;2023-04-06T14:35:22;2.23;;;1.10;;
18740;SDS011;9499;52.472;13.448;2023-04-06T14:37:49;2.03;;;1.67;;
18740;SDS011;9499;52.472;13.448;2023-04-06T14:40:16;2.17;;;1.43;;
18740;SDS011;9499;52.472;13.448;2023-04-06T14:42:43;2.83;;;2.60;;
18740;SDS011;9499;52.472;13.448;2023-04-06T14:45:11;1.83;;;1.17;;
18740;SDS011;9499;52.472;13.448;2023-04-06T14:47:37;1.43;;;1.07;;